createdAt,value
2018-04-11T00:01:30.687Z,92.90
2018-04-11T00:03:34.219Z,92.90
2018-04-11T00:05:37.803Z,93.30
2018-04-11T00:07:42.173Z,93.60
2018-04-11T00:09:46.451Z,93.60
2018-04-11T00:11:50.006Z,93.50
2018-04-11T00:13:53.550Z,94.00
2018-04-11T00:15:57.478Z,94.20
2018-04-11T00:18:01.114Z,93.70
2018-04-11T00:20:05.624Z,94.10
2018-04-11T00:22:09.220Z,94.10
2018-04-11T00:24:12.779Z,94.10
2018-04-11T00:26:16.331Z,94.00
2018-04-11T00:28:20.691Z,94.20
2018-04-11T00:30:24.255Z,94.40
2018-04-11T00:32:28.626Z,94.60
2018-04-11T00:34:32.228Z,94.60
2018-04-11T00:36:35.753Z,94.40
2018-04-11T00:38:40.077Z,94.50
2018-04-11T00:40:44.363Z,94.80
2018-04-11T00:42:47.916Z,94.80
2018-04-11T00:44:51.506Z,94.70
2018-04-11T00:46:55.020Z,94.90
2018-04-11T00:48:58.515Z,94.20
2018-04-11T00:51:02.120Z,94.10
2018-04-11T00:53:17.419Z,94.20
2018-04-11T00:55:20.973Z,94.20
2018-04-11T00:57:25.496Z,93.80
2018-04-11T00:59:29.004Z,94.40
2018-04-11T01:01:32.591Z,94.40
2018-04-11T01:03:36.512Z,94.60
2018-04-11T01:05:40.088Z,94.40
2018-04-11T01:07:43.653Z,94.20
2018-04-11T01:09:47.240Z,94.10
2018-04-11T01:11:50.849Z,94.60
2018-04-11T01:13:54.481Z,94.60
2018-04-11T01:15:58.040Z,94.90
2018-04-11T01:18:01.597Z,94.80
2018-04-11T01:20:05.824Z,94.10
2018-04-11T01:22:10.142Z,95.00
2018-04-11T01:24:13.704Z,95.00
2018-04-11T01:26:17.291Z,95.00
2018-04-11T01:28:21.622Z,95.30
2018-04-11T01:30:25.970Z,95.00
2018-04-11T01:32:29.534Z,95.00
2018-04-11T01:34:33.072Z,95.00
2018-04-11T01:36:36.598Z,95.20
2018-04-11T01:38:40.190Z,95.20
2018-04-11T01:40:43.735Z,95.40
2018-04-11T01:42:47.319Z,95.00
2018-04-11T01:44:51.707Z,95.10
2018-04-11T01:46:55.340Z,95.10
2018-04-11T01:48:59.704Z,95.30
2018-04-11T01:51:03.272Z,95.20
2018-04-11T01:53:06.847Z,95.20
2018-04-11T01:55:10.410Z,94.70
2018-04-11T01:57:13.956Z,94.40
2018-04-11T01:59:17.526Z,94.60
2018-04-11T02:01:21.849Z,94.90
2018-04-11T02:03:26.183Z,95.00
2018-04-11T02:05:29.791Z,95.00
2018-04-11T02:07:33.343Z,95.10
2018-04-11T02:09:36.892Z,95.50
2018-04-11T02:11:40.446Z,95.20
2018-04-11T02:13:44.811Z,94.50
2018-04-11T02:15:48.378Z,94.50
2018-04-11T02:17:52.015Z,95.20
2018-04-11T02:19:55.592Z,95.00
2018-04-11T02:21:59.177Z,95.40
2018-04-11T02:24:02.776Z,95.40
2018-04-11T02:26:06.357Z,95.10
2018-04-11T02:28:09.963Z,95.20
2018-04-11T02:30:13.485Z,95.00
2018-04-11T02:32:17.052Z,95.20
2018-04-11T02:34:20.658Z,95.20
2018-04-11T02:36:24.211Z,95.50
2018-04-11T02:38:28.577Z,95.40
2018-04-11T02:40:32.149Z,95.40
2018-04-11T02:42:35.701Z,95.30
2018-04-11T02:44:39.601Z,95.20
2018-04-11T02:46:43.255Z,95.60
2018-04-11T02:48:46.853Z,95.10
2018-04-11T02:50:51.558Z,95.30
2018-04-11T02:52:55.099Z,95.20
2018-04-11T02:54:58.666Z,95.10
2018-04-11T02:57:02.306Z,95.00
2018-04-11T02:59:05.872Z,95.40
2018-04-11T03:01:10.262Z,95.20
2018-04-11T03:03:13.862Z,95.20
2018-04-11T03:05:17.470Z,95.40
2018-04-11T03:07:21.066Z,95.50
2018-04-11T03:09:24.648Z,95.70
2018-04-11T03:11:28.991Z,95.00
2018-04-11T03:13:33.283Z,95.40
2018-04-11T03:15:37.183Z,95.40
2018-04-11T03:17:40.739Z,95.50
2018-04-11T03:19:44.304Z,95.20
2018-04-11T03:21:47.990Z,95.30
2018-04-11T03:23:51.620Z,95.70
2018-04-11T03:25:55.165Z,95.70
2018-04-11T03:27:58.717Z,95.40
2018-04-11T03:30:02.327Z,95.50
2018-04-11T03:32:06.639Z,95.60
2018-04-11T03:34:10.286Z,95.50
2018-04-11T03:36:13.860Z,95.40
2018-04-11T03:38:17.446Z,95.50
2018-04-11T03:40:21.074Z,95.50
2018-04-11T03:42:25.622Z,95.60
2018-04-11T03:44:29.279Z,95.50
2018-04-11T03:46:33.011Z,95.70
2018-04-11T03:48:36.617Z,95.20
2018-04-11T03:50:40.282Z,95.20
2018-04-11T03:52:43.872Z,95.20
2018-04-11T03:54:47.520Z,94.80
2018-04-11T03:56:51.106Z,94.60
2018-04-11T03:58:54.707Z,95.10
2018-04-11T04:00:58.307Z,95.50
2018-04-11T04:03:01.906Z,95.30
2018-04-11T04:05:05.466Z,95.50
2018-04-11T04:07:09.054Z,95.30
2018-04-11T04:09:15.483Z,95.20
2018-04-11T04:11:22.671Z,94.70
2018-04-11T04:13:39.376Z,95.30
2018-04-11T04:15:54.809Z,95.30
2018-04-11T04:18:10.198Z,95.10
2018-04-11T04:20:27.415Z,95.20
2018-04-11T04:22:32.080Z,95.10
2018-04-11T04:24:35.679Z,95.10
2018-04-11T04:26:39.217Z,95.50
2018-04-11T04:28:42.774Z,95.70
2018-04-11T04:30:46.370Z,96.00
2018-04-11T04:32:50.012Z,95.10
2018-04-11T04:34:54.419Z,95.60
2018-04-11T04:36:57.983Z,95.60
2018-04-11T04:39:02.787Z,95.70
2018-04-11T04:41:07.600Z,95.50
2018-04-11T04:43:12.809Z,95.40
2018-04-11T04:45:16.413Z,95.40
2018-04-11T04:47:20.785Z,95.60
2018-04-11T04:49:24.428Z,95.60
2018-04-11T04:51:28.802Z,95.40
2018-04-11T04:53:32.343Z,95.60
2018-04-11T04:55:37.102Z,95.60
2018-04-11T04:57:40.779Z,95.60
2018-04-11T04:59:45.541Z,95.80
2018-04-11T05:01:49.619Z,95.80
2018-04-11T05:03:53.682Z,96.00
2018-04-11T05:05:57.306Z,95.80
2018-04-11T05:08:01.445Z,95.10
2018-04-11T05:10:06.288Z,95.00
2018-04-11T05:12:09.926Z,95.20
2018-04-11T05:14:13.526Z,95.50
2018-04-11T05:16:18.793Z,95.60
2018-04-11T05:18:24.033Z,95.60
2018-04-11T05:20:27.639Z,95.50
2018-04-11T05:22:32.934Z,95.80
2018-04-11T05:24:37.347Z,95.10
2018-04-11T05:26:42.256Z,95.10
2018-04-11T05:28:46.128Z,94.90
2018-04-11T05:30:49.850Z,95.00
2018-04-11T05:32:53.419Z,95.20
2018-04-11T05:34:58.145Z,95.00
2018-04-11T05:37:01.737Z,95.00
2018-04-11T05:39:07.222Z,95.10
2018-04-11T05:41:10.911Z,95.10
2018-04-11T05:43:14.483Z,94.70
2018-04-11T05:45:18.172Z,94.90
2018-04-11T05:47:23.145Z,94.80
2018-04-11T05:49:27.863Z,94.90
2018-04-11T05:51:31.421Z,94.90
2018-04-11T05:53:34.964Z,95.40
2018-04-11T05:55:38.562Z,95.00
2018-04-11T05:57:42.932Z,94.80
2018-04-11T05:59:46.508Z,94.60
2018-04-11T06:01:50.091Z,94.30
2018-04-11T06:03:55.009Z,95.00
2018-04-11T06:05:59.789Z,95.00
2018-04-11T06:08:03.370Z,95.00
2018-04-11T06:10:06.915Z,94.70
2018-04-11T06:12:10.863Z,94.60
2018-04-11T06:14:14.415Z,94.50
2018-04-11T06:16:18.736Z,94.20
2018-04-11T06:18:25.172Z,94.30
2018-04-11T06:20:28.694Z,94.30
2018-04-11T06:22:33.047Z,94.30
2018-04-11T06:24:36.607Z,94.30
2018-04-11T06:26:40.199Z,94.60
2018-04-11T06:28:44.076Z,94.40
2018-04-11T06:30:47.626Z,94.70
2018-04-11T06:32:51.614Z,94.80
2018-04-11T06:34:55.289Z,94.30
2018-04-11T06:36:58.816Z,94.00
2018-04-11T06:39:03.198Z,94.80
2018-04-11T06:41:06.837Z,94.80
2018-04-11T06:43:10.560Z,94.70
2018-04-11T06:45:14.130Z,95.10
2018-04-11T06:47:18.123Z,94.90
2018-04-11T06:49:22.049Z,94.80
2018-04-11T06:51:25.595Z,94.70
2018-04-11T06:53:29.261Z,94.80
2018-04-11T06:55:32.837Z,94.60
2018-04-11T06:57:36.435Z,94.80
2018-04-11T06:59:40.081Z,94.70
2018-04-11T07:01:43.731Z,94.30
2018-04-11T07:03:47.721Z,94.40
2018-04-11T07:05:51.330Z,94.60
2018-04-11T07:07:54.871Z,93.60
2018-04-11T07:09:59.554Z,94.40
2018-04-11T07:12:03.185Z,94.10
2018-04-11T07:14:07.302Z,94.30
2018-04-11T07:16:11.418Z,94.50
2018-04-11T07:18:16.032Z,93.90
2018-04-11T07:20:19.926Z,93.90
2018-04-11T07:22:23.794Z,93.90
2018-04-11T07:24:28.643Z,93.50
2018-04-11T07:26:33.414Z,93.50
2018-04-11T07:28:37.007Z,93.30
2018-04-11T07:30:41.397Z,93.70
2018-04-11T07:32:44.931Z,93.70
2018-04-11T07:34:49.227Z,93.40
2018-04-11T07:36:52.815Z,93.50
2018-04-11T07:38:56.367Z,93.40
2018-04-11T07:40:59.919Z,94.00
2018-04-11T07:43:04.269Z,92.90
2018-04-11T07:45:07.828Z,92.80
2018-04-11T07:47:11.421Z,93.00
2018-04-11T07:49:15.007Z,93.30
2018-04-11T07:51:18.562Z,93.30
2018-04-11T07:53:22.180Z,93.60
2018-04-11T07:55:25.715Z,93.10
2018-04-11T07:57:30.003Z,93.50
2018-04-11T07:59:33.611Z,93.50
2018-04-11T08:01:37.164Z,93.40
2018-04-11T08:03:40.757Z,92.90
2018-04-11T08:05:44.410Z,93.10
2018-04-11T08:07:48.741Z,93.30
2018-04-11T08:09:53.129Z,92.50
2018-04-11T08:11:57.044Z,92.60
2018-04-11T08:14:01.407Z,93.00
2018-04-11T08:16:05.204Z,93.00
2018-04-11T08:18:08.811Z,92.30
2018-04-11T08:20:12.446Z,92.40
2018-04-11T08:22:16.883Z,92.80
2018-04-11T08:24:20.457Z,92.70
2018-04-11T08:26:24.053Z,92.40
2018-04-11T08:28:27.655Z,92.20
2018-04-11T08:30:31.195Z,92.30
2018-04-11T08:32:34.785Z,91.90
2018-04-11T08:34:38.378Z,92.20
2018-04-11T08:36:41.961Z,92.60
2018-04-11T08:38:45.791Z,92.10
2018-04-11T08:40:49.373Z,92.10
2018-04-11T08:42:52.984Z,92.40
2018-04-11T08:44:56.536Z,92.90
2018-04-11T08:47:00.133Z,92.20
2018-04-11T08:49:04.471Z,92.70
2018-04-11T08:51:08.023Z,92.70
2018-04-11T08:53:11.619Z,92.20
2018-04-11T08:55:15.179Z,92.80
2018-04-11T08:57:18.730Z,93.00
2018-04-11T08:59:22.280Z,92.60
2018-04-11T09:01:26.600Z,92.40
2018-04-11T09:03:30.188Z,92.40
2018-04-11T09:05:33.821Z,92.80
2018-04-11T09:07:37.416Z,92.00
2018-04-11T09:09:41.029Z,92.30
2018-04-11T09:11:45.347Z,92.20
2018-04-11T09:13:48.966Z,91.80
2018-04-11T09:15:52.609Z,91.40
2018-04-11T09:17:56.212Z,91.40
2018-04-11T09:19:59.781Z,91.50
2018-04-11T09:22:03.388Z,91.40
2018-04-11T09:24:06.893Z,91.80
2018-04-11T09:26:10.472Z,91.20
2018-04-11T09:28:14.071Z,90.60
2018-04-11T09:30:17.647Z,91.40
2018-04-11T09:32:21.243Z,91.50
2018-04-11T09:34:25.147Z,91.30
2018-04-11T09:36:28.718Z,90.90
2018-04-11T09:38:33.043Z,91.00
2018-04-11T09:40:37.368Z,90.40
2018-04-11T09:42:40.919Z,90.40
2018-04-11T09:44:44.517Z,90.80
2018-04-11T09:46:48.068Z,90.00
2018-04-11T09:48:51.598Z,90.00
2018-04-11T09:50:55.204Z,90.20
2018-04-11T09:52:58.755Z,91.10
2018-04-11T09:55:02.304Z,90.30
2018-04-11T09:57:05.896Z,90.50
2018-04-11T09:59:09.434Z,90.30
2018-04-11T10:01:18.916Z,90.30
2018-04-11T10:03:23.216Z,90.80
2018-04-11T10:05:26.809Z,91.00
2018-04-11T10:07:30.401Z,90.90
2018-04-11T10:09:34.004Z,90.50
2018-04-11T10:11:37.577Z,90.90
2018-04-11T10:13:41.165Z,90.60
2018-04-11T10:15:44.759Z,90.20
2018-04-11T10:17:48.315Z,89.80
2018-04-11T10:19:51.941Z,90.00
2018-04-11T10:21:55.533Z,90.00
2018-04-11T10:23:59.128Z,90.00
2018-04-11T10:26:02.756Z,90.40
2018-04-11T10:28:06.312Z,89.70
2018-04-11T10:30:10.664Z,90.40
2018-04-11T10:32:14.244Z,90.30
2018-04-11T10:34:17.822Z,90.40
2018-04-11T10:36:22.153Z,90.20
2018-04-11T10:38:25.761Z,90.20
2018-04-11T10:40:29.307Z,90.90
2018-04-11T10:42:33.714Z,90.00
2018-04-11T10:44:37.296Z,90.00
2018-04-11T10:46:40.848Z,88.60
2018-04-11T10:48:44.427Z,88.10
2018-04-11T10:50:49.115Z,87.60
2018-04-11T10:52:52.668Z,87.60
2018-04-11T10:54:56.248Z,89.00
2018-04-11T10:56:59.835Z,90.10
2018-04-11T10:59:03.387Z,90.10
2018-04-11T11:01:06.927Z,90.00
2018-04-11T11:03:11.267Z,88.50
2018-04-11T11:05:14.847Z,88.40
2018-04-11T11:07:19.138Z,88.30
2018-04-11T11:09:22.785Z,88.20
2018-04-11T11:11:26.435Z,89.40
2018-04-11T11:13:30.756Z,90.10
2018-04-11T11:15:35.116Z,89.60
2018-04-11T11:17:38.671Z,89.50
2018-04-11T11:19:54.693Z,86.40
2018-04-11T11:21:58.304Z,86.30
2018-04-11T11:24:01.848Z,88.00
2018-04-11T11:26:06.249Z,87.80
2018-04-11T11:28:09.797Z,87.70
2018-04-11T11:30:13.383Z,89.10
2018-04-11T11:32:17.001Z,88.60
2018-04-11T11:34:20.583Z,87.60
2018-04-11T11:36:24.206Z,84.30
2018-04-11T11:38:27.860Z,86.70
2018-04-11T11:40:31.395Z,87.10
2018-04-11T11:42:34.998Z,87.70
2018-04-11T11:44:38.600Z,87.20
2018-04-11T11:46:42.210Z,88.10
2018-04-11T11:48:45.756Z,86.60
2018-04-11T11:50:49.318Z,84.70
2018-04-11T11:52:53.669Z,83.80
2018-04-11T11:54:57.244Z,83.80
2018-04-11T11:57:00.862Z,85.40
2018-04-11T11:59:04.454Z,88.00
2018-04-11T12:01:08.071Z,85.60
2018-04-11T12:03:11.636Z,85.80
2018-04-11T12:05:15.245Z,89.00
2018-04-11T12:07:18.796Z,86.10
2018-04-11T12:09:22.335Z,86.30
2018-04-11T12:11:25.920Z,85.90
2018-04-11T12:13:29.519Z,86.10
2018-04-11T12:15:33.140Z,86.70
2018-04-11T12:17:36.649Z,86.20
2018-04-11T12:19:40.207Z,84.20
2018-04-11T12:21:43.759Z,84.20
2018-04-11T12:23:47.311Z,86.80
2018-04-11T12:25:50.900Z,83.50
2018-04-11T12:27:54.486Z,84.50
2018-04-11T12:29:58.065Z,84.70
2018-04-11T12:32:02.416Z,86.00
2018-04-11T12:34:05.976Z,85.60
2018-04-11T12:36:10.340Z,85.80
2018-04-11T12:38:13.924Z,85.80
2018-04-11T12:40:17.572Z,85.40
2018-04-11T12:42:21.121Z,85.80
2018-04-11T12:44:24.686Z,85.30
2018-04-11T12:46:29.027Z,83.90
2018-04-11T12:48:32.615Z,83.80
2018-04-11T12:50:36.165Z,84.60
2018-04-11T12:52:39.777Z,84.40
2018-04-11T12:54:43.373Z,85.20
2018-04-11T12:56:47.732Z,83.60
2018-04-11T12:58:51.320Z,83.20
2018-04-11T13:00:54.831Z,83.70
2018-04-11T13:02:58.477Z,79.50
2018-04-11T13:05:02.894Z,78.40
2018-04-11T13:07:07.195Z,76.30
2018-04-11T13:09:10.751Z,76.10
2018-04-11T13:11:14.291Z,77.60
2018-04-11T13:13:17.879Z,75.70
2018-04-11T13:15:21.486Z,74.60
2018-04-11T13:17:25.840Z,73.80
2018-04-11T13:19:29.442Z,73.50
2018-04-11T13:21:33.040Z,71.50
2018-04-11T13:23:36.631Z,74.60
2018-04-11T13:25:40.315Z,72.50
2018-04-11T13:27:43.868Z,71.50
2018-04-11T13:29:47.443Z,73.40
2018-04-11T13:31:51.010Z,70.00
2018-04-11T13:33:54.619Z,69.90
2018-04-11T13:35:58.252Z,69.10
2018-04-11T13:38:01.812Z,69.40
2018-04-11T13:40:05.536Z,69.50
2018-04-11T13:42:09.180Z,72.30
2018-04-11T13:44:13.546Z,69.70
2018-04-11T13:46:17.136Z,69.00
2018-04-11T13:48:20.688Z,67.50
2018-04-11T13:50:25.051Z,65.30
2018-04-11T13:52:28.611Z,65.50
2018-04-11T13:54:32.203Z,67.10
2018-04-11T13:56:36.555Z,65.90
2018-04-11T13:58:40.147Z,65.80
2018-04-11T14:00:43.710Z,66.80
2018-04-11T14:02:48.036Z,65.80
2018-04-11T14:04:51.652Z,65.80
2018-04-11T14:06:55.191Z,67.90
2018-04-11T14:08:58.841Z,68.50
2018-04-11T14:11:02.465Z,68.60
2018-04-11T14:13:06.064Z,69.50
2018-04-11T14:15:09.673Z,65.40
2018-04-11T14:17:13.256Z,66.60
2018-04-11T14:19:16.816Z,60.40
2018-04-11T14:21:20.417Z,62.20
2018-04-11T14:23:23.963Z,65.10
2018-04-11T14:25:27.601Z,64.30
2018-04-11T14:27:31.919Z,66.20
2018-04-11T14:29:35.517Z,66.00
2018-04-11T14:31:39.150Z,64.60
2018-04-11T14:33:42.722Z,64.40
2018-04-11T14:35:48.403Z,63.90
2018-04-11T14:37:52.920Z,63.20
2018-04-11T14:39:58.733Z,61.80
2018-04-11T14:42:02.315Z,61.70
2018-04-11T14:44:05.858Z,63.80
2018-04-11T14:46:09.464Z,62.50
2018-04-11T14:48:13.066Z,61.60
2018-04-11T14:50:17.401Z,64.30
2018-04-11T14:52:21.008Z,64.20
2018-04-11T14:54:24.564Z,63.80
2018-04-11T14:56:28.173Z,62.60
2018-04-11T14:58:31.733Z,61.90
2018-04-11T15:00:35.234Z,63.00
2018-04-11T15:02:38.829Z,65.30
2018-04-11T15:04:42.367Z,62.50
2018-04-11T15:06:46.669Z,62.90
2018-04-11T15:08:51.033Z,61.70
2018-04-11T15:10:54.548Z,61.40
2018-04-11T15:12:58.471Z,59.60
2018-04-11T15:15:02.103Z,61.90
2018-04-11T15:17:05.705Z,62.20
2018-04-11T15:19:09.291Z,61.00
2018-04-11T15:21:12.882Z,63.30
2018-04-11T15:23:17.199Z,62.10
2018-04-11T15:25:20.817Z,62.00
2018-04-11T15:27:24.373Z,61.50
2018-04-11T15:29:27.961Z,61.00
2018-04-11T15:31:31.560Z,61.70
2018-04-11T15:33:35.133Z,60.60
2018-04-11T15:35:38.720Z,62.90
2018-04-11T15:37:43.099Z,62.10
2018-04-11T15:39:46.700Z,62.60
2018-04-11T15:41:50.308Z,61.90
2018-04-11T15:43:53.907Z,61.50
2018-04-11T15:45:57.480Z,59.80
2018-04-11T15:48:01.136Z,61.30
2018-04-11T15:50:05.826Z,61.90
2018-04-11T15:52:09.427Z,60.50
2018-04-11T15:54:12.966Z,61.20
2018-04-11T15:56:16.617Z,59.80
2018-04-11T15:58:20.917Z,61.10
2018-04-11T16:00:24.526Z,61.10
2018-04-11T16:02:28.088Z,60.80
2018-04-11T16:04:32.462Z,60.20
2018-04-11T16:06:36.864Z,61.40
2018-04-11T16:08:40.438Z,60.70
2018-04-11T16:10:46.481Z,60.70
2018-04-11T16:12:50.604Z,61.10
2018-04-11T16:14:54.166Z,61.10
2018-04-11T16:16:58.513Z,61.30
2018-04-11T16:19:02.504Z,60.70
2018-04-11T16:21:06.844Z,59.30
2018-04-11T16:23:10.438Z,59.50
2018-04-11T16:25:14.047Z,60.70
2018-04-11T16:27:17.616Z,61.10
2018-04-11T16:29:21.250Z,61.00
2018-04-11T16:31:24.807Z,60.40
2018-04-11T16:33:28.421Z,60.80
2018-04-11T16:35:32.035Z,62.40
2018-04-11T16:37:35.567Z,61.90
2018-04-11T16:39:39.951Z,59.50
2018-04-11T16:41:43.565Z,59.50
2018-04-11T16:43:47.115Z,65.00
2018-04-11T16:45:50.673Z,62.70
2018-04-11T16:47:54.220Z,63.10
2018-04-11T16:49:57.778Z,63.20
2018-04-11T16:52:02.118Z,62.10
2018-04-11T16:54:05.713Z,62.20
2018-04-11T16:56:09.224Z,63.60
2018-04-11T16:58:12.824Z,64.70
2018-04-11T17:00:16.467Z,64.10
2018-04-11T17:02:20.060Z,62.20
2018-04-11T17:04:24.443Z,66.60
2018-04-11T17:06:28.024Z,66.50
2018-04-11T17:08:31.596Z,67.00
2018-04-11T17:10:35.203Z,68.60
2018-04-11T17:12:38.785Z,68.90
2018-04-11T17:14:43.191Z,71.90
2018-04-11T17:16:47.637Z,72.60
2018-04-11T17:18:51.202Z,72.50
2018-04-11T17:21:07.377Z,74.30
2018-04-11T17:23:22.745Z,74.00
2018-04-11T17:25:38.132Z,73.20
2018-04-11T17:27:53.335Z,74.80
2018-04-11T17:30:09.307Z,74.80
2018-04-11T17:32:12.832Z,74.90
2018-04-11T17:34:16.436Z,75.80
2018-04-11T17:36:20.023Z,74.60
2018-04-11T17:38:23.590Z,78.40
2018-04-11T17:40:27.200Z,75.40
2018-04-11T17:42:30.748Z,75.70
2018-04-11T17:44:34.347Z,75.70
2018-04-11T17:46:37.901Z,78.20
2018-04-11T17:48:41.531Z,77.50
2018-04-11T17:50:45.170Z,78.30
2018-04-11T17:52:48.794Z,74.80
2018-04-11T17:54:52.318Z,77.30
2018-04-11T17:56:56.103Z,77.90
2018-04-11T17:58:59.829Z,78.40
2018-04-11T18:01:03.940Z,80.00
2018-04-11T18:03:07.613Z,80.60
2018-04-11T18:05:11.489Z,81.20
2018-04-11T18:07:15.071Z,79.20
2018-04-11T18:09:18.640Z,79.30
2018-04-11T18:11:22.180Z,78.10
2018-04-11T18:13:25.767Z,81.60
2018-04-11T18:15:30.082Z,83.50
2018-04-11T18:17:33.612Z,83.40
2018-04-11T18:19:37.202Z,82.20
2018-04-11T18:21:40.785Z,83.10
2018-04-11T18:23:44.359Z,84.60
2018-04-11T18:25:47.930Z,83.40
2018-04-11T18:27:51.493Z,81.60
2018-04-11T18:29:55.102Z,81.10
2018-04-11T18:31:59.400Z,81.30
2018-04-11T18:34:03.057Z,81.30
2018-04-11T18:36:06.569Z,83.20
2018-04-11T18:38:10.073Z,84.70
2018-04-11T18:40:13.664Z,85.80
2018-04-11T18:42:17.391Z,82.80
2018-04-11T18:44:21.034Z,86.80
2018-04-11T18:46:25.392Z,86.30
2018-04-11T18:48:28.959Z,86.20
2018-04-11T18:50:32.534Z,87.20
2018-04-11T18:52:36.879Z,87.30
2018-04-11T18:54:40.457Z,87.30
2018-04-11T18:56:44.361Z,87.70
2018-04-11T18:58:47.976Z,87.40
2018-04-11T19:00:51.570Z,87.80
2018-04-11T19:02:55.288Z,88.20
2018-04-11T19:04:58.847Z,89.30
2018-04-11T19:07:03.159Z,89.60
2018-04-11T19:09:06.776Z,89.50
2018-04-11T19:11:10.330Z,90.90
2018-04-11T19:13:13.965Z,90.40
2018-04-11T19:15:17.496Z,89.70
2018-04-11T19:17:21.061Z,90.00
2018-04-11T19:19:24.649Z,89.20
2018-04-11T19:21:28.992Z,90.00
2018-04-11T19:23:32.617Z,90.00
2018-04-11T19:25:36.191Z,90.30
2018-04-11T19:27:39.711Z,91.00
2018-04-11T19:29:44.085Z,91.30
2018-04-11T19:31:48.356Z,90.50
2018-04-11T19:33:52.690Z,90.00
2018-04-11T19:35:57.077Z,91.30
2018-04-11T19:38:00.637Z,91.20
2018-04-11T19:40:04.620Z,90.60
2018-04-11T19:42:08.221Z,91.10
2018-04-11T19:44:11.805Z,90.70
2018-04-11T19:46:15.413Z,91.50
2018-04-11T19:48:19.059Z,91.00
2018-04-11T19:50:22.657Z,91.80
2018-04-11T19:52:26.199Z,92.10
2018-04-11T19:54:29.772Z,91.90
2018-04-11T19:56:33.261Z,91.90
2018-04-11T19:58:37.650Z,92.20
2018-04-11T20:00:41.159Z,92.10
2018-04-11T20:02:44.703Z,92.10
2018-04-11T20:04:48.297Z,92.10
2018-04-11T20:06:51.903Z,92.10
2018-04-11T20:08:56.167Z,93.00
2018-04-11T20:11:00.566Z,93.20
2018-04-11T20:13:04.124Z,93.10
2018-04-11T20:15:07.671Z,93.30
2018-04-11T20:17:11.259Z,93.60
2018-04-11T20:19:14.863Z,93.50
2018-04-11T20:21:18.411Z,93.10
2018-04-11T20:23:22.385Z,93.40
2018-04-11T20:25:26.714Z,93.60
2018-04-11T20:27:30.456Z,93.50
2018-04-11T20:29:34.075Z,93.00
2018-04-11T20:31:38.358Z,93.70
2018-04-11T20:33:41.874Z,93.40
2018-04-11T20:35:45.430Z,93.30
2018-04-11T20:37:48.981Z,93.10
2018-04-11T20:39:52.591Z,93.40
2018-04-11T20:41:56.895Z,93.50
2018-04-11T20:44:01.248Z,92.90
2018-04-11T20:46:04.892Z,92.90
2018-04-11T20:48:08.463Z,93.30
2018-04-11T20:50:11.963Z,93.60
2018-04-11T20:52:15.616Z,92.80
2018-04-11T20:54:19.200Z,92.50
2018-04-11T20:56:22.761Z,92.20
2018-04-11T20:58:26.687Z,92.10
2018-04-11T21:00:30.188Z,90.90
2018-04-11T21:02:34.548Z,91.50
2018-04-11T21:04:38.147Z,91.50
2018-04-11T21:06:41.771Z,92.60
2018-04-11T21:08:45.356Z,92.20
2018-04-11T21:10:48.912Z,92.30
2018-04-11T21:12:56.559Z,92.40
2018-04-11T21:15:02.341Z,92.40
2018-04-11T21:17:08.215Z,92.20
2018-04-11T21:19:11.771Z,92.00
2018-04-11T21:21:16.391Z,92.60
2018-04-11T21:23:19.939Z,92.60
2018-04-11T21:25:23.499Z,92.90
2018-04-11T21:27:28.966Z,92.40
2018-04-11T21:29:33.924Z,92.30
2018-04-11T21:31:37.487Z,92.70
2018-04-11T21:33:41.151Z,92.20
2018-04-11T21:35:44.766Z,92.70
2018-04-11T21:37:48.310Z,93.00
2018-04-11T21:39:53.983Z,92.10
2018-04-11T21:41:58.278Z,91.80
2018-04-11T21:44:01.823Z,91.80
2018-04-11T21:46:05.843Z,92.60
2018-04-11T21:48:09.376Z,91.40
2018-04-11T21:50:12.948Z,91.70
2018-04-11T21:52:16.504Z,92.60
2018-04-11T21:54:20.816Z,92.60
2018-04-11T21:56:24.727Z,92.50
2018-04-11T21:58:29.739Z,93.00
2018-04-11T22:00:34.090Z,92.30
2018-04-11T22:02:37.684Z,92.30
2018-04-11T22:04:41.185Z,92.20
2018-04-11T22:06:45.485Z,92.50
2018-04-11T22:08:49.082Z,92.50
2018-04-11T22:10:52.673Z,92.80
2018-04-11T22:12:56.211Z,93.30
2018-04-11T22:15:00.244Z,92.70
2018-04-11T22:17:03.753Z,93.30
2018-04-11T22:19:08.050Z,92.10
2018-04-11T22:21:11.650Z,92.10
2018-04-11T22:23:15.248Z,92.30
2018-04-11T22:25:19.583Z,92.30
2018-04-11T22:27:23.919Z,92.60
2018-04-11T22:29:27.475Z,92.50
2018-04-11T22:31:31.052Z,92.30
2018-04-11T22:33:34.567Z,92.10
2018-04-11T22:35:38.145Z,92.70
2018-04-11T22:37:41.757Z,91.10
2018-04-11T22:39:45.271Z,90.70
2018-04-11T22:41:49.546Z,92.00
2018-04-11T22:43:53.154Z,91.90
2018-04-11T22:45:56.877Z,92.90
2018-04-11T22:48:01.273Z,91.90
2018-04-11T22:50:05.064Z,91.80
2018-04-11T22:52:08.663Z,91.40
2018-04-11T22:54:12.250Z,91.90
2018-04-11T22:56:15.847Z,90.30
2018-04-11T22:58:19.793Z,88.30
2018-04-11T23:00:24.113Z,90.40
2018-04-11T23:02:27.656Z,90.40
2018-04-11T23:04:31.300Z,90.00
2018-04-11T23:06:34.875Z,92.20
2018-04-11T23:08:38.443Z,92.90
2018-04-11T23:10:42.078Z,93.90
2018-04-11T23:12:46.516Z,94.90
2018-04-11T23:14:50.101Z,94.80
2018-04-11T23:16:53.679Z,94.80
2018-04-11T23:18:57.258Z,94.20
2018-04-11T23:21:00.782Z,94.20
2018-04-11T23:23:05.268Z,94.20
2018-04-11T23:25:08.843Z,94.20
2018-04-11T23:27:12.483Z,94.10
2018-04-11T23:29:16.893Z,93.70
2018-04-11T23:31:20.435Z,93.70
2018-04-11T23:33:24.091Z,93.20
2018-04-11T23:35:28.479Z,93.10
2018-04-11T23:37:32.097Z,93.10
2018-04-11T23:39:36.487Z,93.50
2018-04-11T23:41:40.043Z,93.20
2018-04-11T23:43:44.038Z,93.50
2018-04-11T23:45:47.614Z,93.90
2018-04-11T23:47:51.949Z,93.30
2018-04-11T23:49:56.281Z,93.80
2018-04-11T23:51:59.834Z,93.70
2018-04-11T23:54:03.455Z,93.20
2018-04-11T23:56:07.020Z,92.90
2018-04-11T23:58:10.593Z,93.40
